sensor_id;sensor_type;location;lat;lon;timestamp;P1;durP1;ratioP1;P2;durP2;ratioP2
59972;SDS011;55298;-36.624;-64.282;2022-07-09T00:00:35;15.05;;;6.85;;
59972;SDS011;55298;-36.624;-64.282;2022-07-09T00:03:04;10.02;;;5.88;;
59972;SDS011;55298;-36.624;-64.282;2022-07-09T00:05:33;12.00;;;5.78;;
59972;SDS011;55298;-36.624;-64.282;2022-07-09T00:08:02;9.70;;;5.85;;
59972;SDS011;55298;-36.624;-64.282;2022-07-09T00:10:32;10.23;;;5.20;;
59972;SDS011;55298;-36.624;-64.282;2022-07-09T00:13:01;14.27;;;6.78;;
59972;SDS011;55298;-36.624;-64.282;2022-07-09T00:15:31;19.05;;;6.40;;
59972;SDS011;55298;-36.624;-64.282;2022-07-09T00:18:00;12.90;;;6.07;;
59972;SDS011;55298;-36.624;-64.282;2022-07-09T00:20:29;14.10;;;7.80;;
59972;SDS011;55298;-36.624;-64.282;2022-07-09T00:22:57;10.13;;;6.40;;
59972;SDS011;55298;-36.624;-64.282;2022-07-09T00:25:26;13.23;;;6.55;;
59972;SDS011;55298;-36.624;-64.282;2022-07-09T00:27:55;17.05;;;8.10;;
59972;SDS011;55298;-36.624;-64.282;2022-07-09T00:30:23;13.43;;;6.40;;
59972;SDS011;55298;-36.624;-64.282;2022-07-09T00:32:52;10.90;;;6.60;;
59972;SDS011;55298;-36.624;-64.282;2022-07-09T00:35:20;12.15;;;6.95;;
59972;SDS011;55298;-36.624;-64.282;2022-07-09T00:37:50;18.02;;;8.60;;
59972;SDS011;55298;-36.624;-64.282;2022-07-09T00:40:18;15.88;;;8.13;;
59972;SDS011;55298;-36.624;-64.282;2022-07-09T00:42:47;14.00;;;7.75;;
59972;SDS011;55298;-36.624;-64.282;2022-07-09T00:45:15;11.32;;;6.43;;
59972;SDS011;55298;-36.624;-64.282;2022-07-09T00:47:44;14.00;;;7.10;;
59972;SDS011;55298;-36.624;-64.282;2022-07-09T00:50:11;24.60;;;12.73;;
59972;SDS011;55298;-36.624;-64.282;2022-07-09T00:52:41;25.58;;;13.55;;
59972;SDS011;55298;-36.624;-64.282;2022-07-09T00:55:11;26.23;;;14.55;;
59972;SDS011;55298;-36.624;-64.282;2022-07-09T00:57:41;12.75;;;6.75;;
59972;SDS011;55298;-36.624;-64.282;2022-07-09T01:00:11;7.35;;;6.55;;
59972;SDS011;55298;-36.624;-64.282;2022-07-09T01:02:40;10.05;;;6.85;;
59972;SDS011;55298;-36.624;-64.282;2022-07-09T01:05:08;16.85;;;6.57;;
59972;SDS011;55298;-36.624;-64.282;2022-07-09T01:07:38;10.07;;;6.30;;
59972;SDS011;55298;-36.624;-64.282;2022-07-09T01:10:06;9.95;;;6.22;;
59972;SDS011;55298;-36.624;-64.282;2022-07-09T01:12:36;15.90;;;8.48;;
59972;SDS011;55298;-36.624;-64.282;2022-07-09T01:15:04;9.75;;;6.35;;
59972;SDS011;55298;-36.624;-64.282;2022-07-09T01:17:39;14.35;;;8.40;;
59972;SDS011;55298;-36.624;-64.282;2022-07-09T01:22:36;10.68;;;6.88;;
59972;SDS011;55298;-36.624;-64.282;2022-07-09T01:25:08;11.15;;;7.55;;
59972;SDS011;55298;-36.624;-64.282;2022-07-09T01:27:39;13.68;;;5.70;;
59972;SDS011;55298;-36.624;-64.282;2022-07-09T01:30:07;10.00;;;6.43;;
59972;SDS011;55298;-36.624;-64.282;2022-07-09T01:32:37;9.18;;;6.15;;
59972;SDS011;55298;-36.624;-64.282;2022-07-09T01:35:05;5.88;;;5.00;;
59972;SDS011;55298;-36.624;-64.282;2022-07-09T01:37:33;6.72;;;5.15;;
59972;SDS011;55298;-36.624;-64.282;2022-07-09T01:40:01;10.38;;;6.50;;
59972;SDS011;55298;-36.624;-64.282;2022-07-09T01:42:30;11.55;;;8.13;;
59972;SDS011;55298;-36.624;-64.282;2022-07-09T01:44:58;13.15;;;5.90;;
59972;SDS011;55298;-36.624;-64.282;2022-07-09T01:47:27;8.32;;;5.22;;
59972;SDS011;55298;-36.624;-64.282;2022-07-09T01:49:56;11.88;;;5.93;;
59972;SDS011;55298;-36.624;-64.282;2022-07-09T01:52:26;9.95;;;5.22;;
59972;SDS011;55298;-36.624;-64.282;2022-07-09T01:54:55;7.75;;;5.40;;
59972;SDS011;55298;-36.624;-64.282;2022-07-09T01:57:25;11.77;;;5.50;;
59972;SDS011;55298;-36.624;-64.282;2022-07-09T01:59:53;12.88;;;5.10;;
59972;SDS011;55298;-36.624;-64.282;2022-07-09T02:02:22;8.23;;;6.07;;
59972;SDS011;55298;-36.624;-64.282;2022-07-09T02:04:51;9.25;;;4.90;;
59972;SDS011;55298;-36.624;-64.282;2022-07-09T02:07:20;10.10;;;4.47;;
59972;SDS011;55298;-36.624;-64.282;2022-07-09T02:09:49;7.88;;;4.28;;
59972;SDS011;55298;-36.624;-64.282;2022-07-09T02:12:18;6.15;;;4.93;;
59972;SDS011;55298;-36.624;-64.282;2022-07-09T02:14:48;5.57;;;3.95;;
59972;SDS011;55298;-36.624;-64.282;2022-07-09T02:17:16;5.15;;;3.90;;
59972;SDS011;55298;-36.624;-64.282;2022-07-09T02:19:45;12.90;;;3.95;;
59972;SDS011;55298;-36.624;-64.282;2022-07-09T02:22:14;11.13;;;4.45;;
59972;SDS011;55298;-36.624;-64.282;2022-07-09T02:24:42;9.57;;;4.10;;
59972;SDS011;55298;-36.624;-64.282;2022-07-09T02:27:10;7.90;;;3.80;;
59972;SDS011;55298;-36.624;-64.282;2022-07-09T02:29:38;7.93;;;4.05;;
59972;SDS011;55298;-36.624;-64.282;2022-07-09T02:32:07;5.82;;;4.55;;
59972;SDS011;55298;-36.624;-64.282;2022-07-09T02:34:36;9.35;;;4.50;;
59972;SDS011;55298;-36.624;-64.282;2022-07-09T02:37:05;12.10;;;5.10;;
59972;SDS011;55298;-36.624;-64.282;2022-07-09T02:39:34;11.15;;;5.88;;
59972;SDS011;55298;-36.624;-64.282;2022-07-09T02:42:04;7.78;;;4.90;;
59972;SDS011;55298;-36.624;-64.282;2022-07-09T02:44:33;7.15;;;4.78;;
59972;SDS011;55298;-36.624;-64.282;2022-07-09T02:47:01;9.18;;;4.60;;
59972;SDS011;55298;-36.624;-64.282;2022-07-09T02:49:29;9.65;;;4.68;;
59972;SDS011;55298;-36.624;-64.282;2022-07-09T02:51:59;4.95;;;4.45;;
59972;SDS011;55298;-36.624;-64.282;2022-07-09T02:54:27;4.20;;;3.85;;
59972;SDS011;55298;-36.624;-64.282;2022-07-09T02:56:57;9.77;;;5.43;;
59972;SDS011;55298;-36.624;-64.282;2022-07-09T02:59:27;6.43;;;4.60;;
59972;SDS011;55298;-36.624;-64.282;2022-07-09T03:01:57;7.63;;;4.63;;
59972;SDS011;55298;-36.624;-64.282;2022-07-09T03:04:27;5.10;;;4.47;;
59972;SDS011;55298;-36.624;-64.282;2022-07-09T03:06:55;7.80;;;4.53;;
59972;SDS011;55298;-36.624;-64.282;2022-07-09T03:09:23;10.85;;;4.97;;
59972;SDS011;55298;-36.624;-64.282;2022-07-09T03:11:51;7.88;;;4.45;;
59972;SDS011;55298;-36.624;-64.282;2022-07-09T03:14:19;5.00;;;4.13;;
59972;SDS011;55298;-36.624;-64.282;2022-07-09T03:16:48;7.28;;;4.47;;
59972;SDS011;55298;-36.624;-64.282;2022-07-09T03:19:16;8.18;;;4.70;;
59972;SDS011;55298;-36.624;-64.282;2022-07-09T03:21:45;5.95;;;4.60;;
59972;SDS011;55298;-36.624;-64.282;2022-07-09T03:24:14;6.05;;;4.55;;
59972;SDS011;55298;-36.624;-64.282;2022-07-09T03:26:43;4.43;;;4.05;;
59972;SDS011;55298;-36.624;-64.282;2022-07-09T03:29:12;7.00;;;4.65;;
59972;SDS011;55298;-36.624;-64.282;2022-07-09T03:31:40;7.65;;;4.57;;
59972;SDS011;55298;-36.624;-64.282;2022-07-09T03:34:09;6.45;;;4.68;;
59972;SDS011;55298;-36.624;-64.282;2022-07-09T03:36:38;6.70;;;4.57;;
59972;SDS011;55298;-36.624;-64.282;2022-07-09T03:39:06;9.75;;;4.20;;
59972;SDS011;55298;-36.624;-64.282;2022-07-09T03:41:35;7.57;;;4.57;;
59972;SDS011;55298;-36.624;-64.282;2022-07-09T03:44:04;10.85;;;7.38;;
59972;SDS011;55298;-36.624;-64.282;2022-07-09T03:46:32;6.97;;;4.43;;
59972;SDS011;55298;-36.624;-64.282;2022-07-09T03:49:03;8.25;;;4.07;;
59972;SDS011;55298;-36.624;-64.282;2022-07-09T03:51:32;5.57;;;4.97;;
59972;SDS011;55298;-36.624;-64.282;2022-07-09T03:54:00;9.45;;;5.05;;
59972;SDS011;55298;-36.624;-64.282;2022-07-09T03:56:29;10.23;;;4.88;;
59972;SDS011;55298;-36.624;-64.282;2022-07-09T03:58:58;6.90;;;4.40;;
59972;SDS011;55298;-36.624;-64.282;2022-07-09T04:01:26;14.52;;;5.30;;
59972;SDS011;55298;-36.624;-64.282;2022-07-09T04:03:55;11.48;;;4.80;;
59972;SDS011;55298;-36.624;-64.282;2022-07-09T04:06:24;8.00;;;4.60;;
59972;SDS011;55298;-36.624;-64.282;2022-07-09T04:08:52;9.25;;;4.57;;
59972;SDS011;55298;-36.624;-64.282;2022-07-09T04:11:22;6.22;;;4.50;;
59972;SDS011;55298;-36.624;-64.282;2022-07-09T04:13:50;6.70;;;4.72;;
59972;SDS011;55298;-36.624;-64.282;2022-07-09T04:16:19;7.15;;;4.60;;
59972;SDS011;55298;-36.624;-64.282;2022-07-09T04:18:47;7.25;;;4.13;;
59972;SDS011;55298;-36.624;-64.282;2022-07-09T04:21:16;7.13;;;4.15;;
59972;SDS011;55298;-36.624;-64.282;2022-07-09T04:23:48;5.72;;;4.70;;
59972;SDS011;55298;-36.624;-64.282;2022-07-09T04:26:16;4.97;;;4.60;;
59972;SDS011;55298;-36.624;-64.282;2022-07-09T04:28:46;8.35;;;4.78;;
59972;SDS011;55298;-36.624;-64.282;2022-07-09T04:31:15;17.25;;;6.13;;
59972;SDS011;55298;-36.624;-64.282;2022-07-09T04:33:45;9.43;;;4.53;;
59972;SDS011;55298;-36.624;-64.282;2022-07-09T04:36:13;6.97;;;4.63;;
59972;SDS011;55298;-36.624;-64.282;2022-07-09T04:38:42;5.97;;;4.43;;
59972;SDS011;55298;-36.624;-64.282;2022-07-09T04:41:11;7.25;;;4.18;;
59972;SDS011;55298;-36.624;-64.282;2022-07-09T04:43:39;4.78;;;4.20;;
59972;SDS011;55298;-36.624;-64.282;2022-07-09T04:46:08;5.07;;;4.57;;
59972;SDS011;55298;-36.624;-64.282;2022-07-09T04:48:37;5.78;;;4.88;;
59972;SDS011;55298;-36.624;-64.282;2022-07-09T04:51:05;5.10;;;4.57;;
59972;SDS011;55298;-36.624;-64.282;2022-07-09T04:53:34;5.35;;;4.78;;
59972;SDS011;55298;-36.624;-64.282;2022-07-09T04:56:02;4.82;;;4.30;;
59972;SDS011;55298;-36.624;-64.282;2022-07-09T04:58:32;6.47;;;4.50;;
59972;SDS011;55298;-36.624;-64.282;2022-07-09T05:01:03;5.47;;;4.53;;
59972;SDS011;55298;-36.624;-64.282;2022-07-09T05:03:31;6.55;;;4.00;;
59972;SDS011;55298;-36.624;-64.282;2022-07-09T05:05:59;9.43;;;4.78;;
59972;SDS011;55298;-36.624;-64.282;2022-07-09T05:08:27;4.88;;;4.47;;
59972;SDS011;55298;-36.624;-64.282;2022-07-09T05:10:57;14.05;;;4.20;;
59972;SDS011;55298;-36.624;-64.282;2022-07-09T05:13:25;8.05;;;4.25;;
59972;SDS011;55298;-36.624;-64.282;2022-07-09T05:15:54;9.43;;;4.70;;
59972;SDS011;55298;-36.624;-64.282;2022-07-09T05:18:22;6.50;;;4.32;;
59972;SDS011;55298;-36.624;-64.282;2022-07-09T05:20:52;5.65;;;4.22;;
59972;SDS011;55298;-36.624;-64.282;2022-07-09T05:23:20;7.47;;;5.50;;
59972;SDS011;55298;-36.624;-64.282;2022-07-09T05:25:49;7.38;;;4.68;;
59972;SDS011;55298;-36.624;-64.282;2022-07-09T05:28:17;5.32;;;4.43;;
59972;SDS011;55298;-36.624;-64.282;2022-07-09T05:30:47;13.40;;;4.82;;
59972;SDS011;55298;-36.624;-64.282;2022-07-09T05:33:14;5.15;;;4.50;;
59972;SDS011;55298;-36.624;-64.282;2022-07-09T05:35:44;11.57;;;4.68;;
59972;SDS011;55298;-36.624;-64.282;2022-07-09T05:38:15;6.53;;;4.38;;
59972;SDS011;55298;-36.624;-64.282;2022-07-09T05:40:43;6.20;;;4.82;;
59972;SDS011;55298;-36.624;-64.282;2022-07-09T05:43:11;4.85;;;4.45;;
59972;SDS011;55298;-36.624;-64.282;2022-07-09T05:45:40;6.45;;;5.00;;
59972;SDS011;55298;-36.624;-64.282;2022-07-09T05:48:08;8.30;;;4.72;;
59972;SDS011;55298;-36.624;-64.282;2022-07-09T05:50:39;10.30;;;4.55;;
59972;SDS011;55298;-36.624;-64.282;2022-07-09T05:53:07;7.20;;;4.10;;
59972;SDS011;55298;-36.624;-64.282;2022-07-09T05:55:36;8.85;;;4.00;;
59972;SDS011;55298;-36.624;-64.282;2022-07-09T05:58:05;7.57;;;4.53;;
59972;SDS011;55298;-36.624;-64.282;2022-07-09T06:00:33;6.70;;;5.00;;
59972;SDS011;55298;-36.624;-64.282;2022-07-09T06:03:02;7.47;;;4.13;;
59972;SDS011;55298;-36.624;-64.282;2022-07-09T06:05:31;5.03;;;4.55;;
59972;SDS011;55298;-36.624;-64.282;2022-07-09T06:07:59;7.32;;;4.40;;
59972;SDS011;55298;-36.624;-64.282;2022-07-09T06:10:27;7.00;;;4.43;;
59972;SDS011;55298;-36.624;-64.282;2022-07-09T06:12:56;9.80;;;4.63;;
59972;SDS011;55298;-36.624;-64.282;2022-07-09T06:15:27;7.75;;;5.05;;
59972;SDS011;55298;-36.624;-64.282;2022-07-09T06:17:57;5.55;;;4.63;;
59972;SDS011;55298;-36.624;-64.282;2022-07-09T06:20:26;6.07;;;4.40;;
59972;SDS011;55298;-36.624;-64.282;2022-07-09T06:22:54;4.85;;;4.43;;
59972;SDS011;55298;-36.624;-64.282;2022-07-09T06:25:26;5.07;;;4.07;;
59972;SDS011;55298;-36.624;-64.282;2022-07-09T06:27:54;5.93;;;4.88;;
59972;SDS011;55298;-36.624;-64.282;2022-07-09T06:30:23;4.65;;;4.22;;
59972;SDS011;55298;-36.624;-64.282;2022-07-09T06:32:51;4.88;;;4.47;;
59972;SDS011;55298;-36.624;-64.282;2022-07-09T06:35:19;4.40;;;4.07;;
59972;SDS011;55298;-36.624;-64.282;2022-07-09T06:37:47;6.22;;;4.97;;
59972;SDS011;55298;-36.624;-64.282;2022-07-09T06:40:15;4.90;;;4.53;;
59972;SDS011;55298;-36.624;-64.282;2022-07-09T06:42:44;10.50;;;4.80;;
59972;SDS011;55298;-36.624;-64.282;2022-07-09T06:45:12;4.70;;;4.30;;
59972;SDS011;55298;-36.624;-64.282;2022-07-09T06:47:42;5.10;;;4.60;;
59972;SDS011;55298;-36.624;-64.282;2022-07-09T06:50:10;5.18;;;4.50;;
59972;SDS011;55298;-36.624;-64.282;2022-07-09T06:52:40;10.73;;;4.40;;
59972;SDS011;55298;-36.624;-64.282;2022-07-09T06:55:08;4.57;;;4.15;;
59972;SDS011;55298;-36.624;-64.282;2022-07-09T06:57:36;7.32;;;4.90;;
59972;SDS011;55298;-36.624;-64.282;2022-07-09T07:00:05;5.80;;;4.38;;
59972;SDS011;55298;-36.624;-64.282;2022-07-09T07:02:35;5.75;;;4.60;;
59972;SDS011;55298;-36.624;-64.282;2022-07-09T07:05:03;5.15;;;4.70;;
59972;SDS011;55298;-36.624;-64.282;2022-07-09T07:07:32;5.22;;;4.22;;
59972;SDS011;55298;-36.624;-64.282;2022-07-09T07:10:02;5.75;;;4.43;;
59972;SDS011;55298;-36.624;-64.282;2022-07-09T07:12:31;5.47;;;4.57;;
59972;SDS011;55298;-36.624;-64.282;2022-07-09T07:14:59;5.00;;;4.03;;
59972;SDS011;55298;-36.624;-64.282;2022-07-09T07:17:28;5.05;;;4.55;;
59972;SDS011;55298;-36.624;-64.282;2022-07-09T07:19:57;5.00;;;4.18;;
59972;SDS011;55298;-36.624;-64.282;2022-07-09T07:22:26;5.47;;;4.50;;
59972;SDS011;55298;-36.624;-64.282;2022-07-09T07:24:54;5.05;;;4.38;;
59972;SDS011;55298;-36.624;-64.282;2022-07-09T07:27:23;6.88;;;5.10;;
59972;SDS011;55298;-36.624;-64.282;2022-07-09T07:29:51;5.45;;;4.75;;
59972;SDS011;55298;-36.624;-64.282;2022-07-09T07:32:21;4.70;;;4.35;;
59972;SDS011;55298;-36.624;-64.282;2022-07-09T07:34:49;5.95;;;4.82;;
59972;SDS011;55298;-36.624;-64.282;2022-07-09T07:37:18;4.60;;;4.20;;
59972;SDS011;55298;-36.624;-64.282;2022-07-09T07:39:46;6.53;;;4.32;;
59972;SDS011;55298;-36.624;-64.282;2022-07-09T07:42:14;5.35;;;4.78;;
59972;SDS011;55298;-36.624;-64.282;2022-07-09T07:44:42;6.43;;;4.30;;
59972;SDS011;55298;-36.624;-64.282;2022-07-09T07:47:11;4.72;;;4.43;;
59972;SDS011;55298;-36.624;-64.282;2022-07-09T07:49:39;5.18;;;4.68;;
59972;SDS011;55298;-36.624;-64.282;2022-07-09T07:52:08;5.65;;;4.93;;
59972;SDS011;55298;-36.624;-64.282;2022-07-09T07:54:37;6.70;;;4.63;;
59972;SDS011;55298;-36.624;-64.282;2022-07-09T07:57:05;5.88;;;4.70;;
59972;SDS011;55298;-36.624;-64.282;2022-07-09T07:59:33;9.15;;;4.40;;
59972;SDS011;55298;-36.624;-64.282;2022-07-09T08:02:03;6.15;;;4.40;;
59972;SDS011;55298;-36.624;-64.282;2022-07-09T08:04:31;7.35;;;4.78;;
59972;SDS011;55298;-36.624;-64.282;2022-07-09T08:07:01;6.15;;;5.05;;
59972;SDS011;55298;-36.624;-64.282;2022-07-09T08:09:28;4.45;;;4.15;;
59972;SDS011;55298;-36.624;-64.282;2022-07-09T08:11:58;4.72;;;4.28;;
59972;SDS011;55298;-36.624;-64.282;2022-07-09T08:14:26;4.97;;;4.60;;
59972;SDS011;55298;-36.624;-64.282;2022-07-09T08:16:55;5.50;;;4.25;;
59972;SDS011;55298;-36.624;-64.282;2022-07-09T08:19:24;4.38;;;4.07;;
59972;SDS011;55298;-36.624;-64.282;2022-07-09T08:21:53;8.00;;;4.22;;
59972;SDS011;55298;-36.624;-64.282;2022-07-09T08:24:22;5.43;;;4.22;;
59972;SDS011;55298;-36.624;-64.282;2022-07-09T08:26:52;11.05;;;5.20;;
59972;SDS011;55298;-36.624;-64.282;2022-07-09T08:29:24;4.90;;;4.60;;
59972;SDS011;55298;-36.624;-64.282;2022-07-09T08:31:52;6.57;;;4.43;;
59972;SDS011;55298;-36.624;-64.282;2022-07-09T08:34:21;5.18;;;4.53;;
59972;SDS011;55298;-36.624;-64.282;2022-07-09T08:36:49;4.40;;;4.00;;
59972;SDS011;55298;-36.624;-64.282;2022-07-09T08:39:20;4.88;;;4.03;;
59972;SDS011;55298;-36.624;-64.282;2022-07-09T08:41:50;6.70;;;4.97;;
59972;SDS011;55298;-36.624;-64.282;2022-07-09T08:44:19;4.97;;;4.60;;
59972;SDS011;55298;-36.624;-64.282;2022-07-09T08:46:50;8.38;;;4.10;;
59972;SDS011;55298;-36.624;-64.282;2022-07-09T08:49:19;5.43;;;4.35;;
59972;SDS011;55298;-36.624;-64.282;2022-07-09T08:51:49;4.20;;;3.90;;
59972;SDS011;55298;-36.624;-64.282;2022-07-09T08:54:19;7.65;;;4.35;;
59972;SDS011;55298;-36.624;-64.282;2022-07-09T08:56:50;5.03;;;4.40;;
59972;SDS011;55298;-36.624;-64.282;2022-07-09T08:59:19;6.00;;;4.65;;
59972;SDS011;55298;-36.624;-64.282;2022-07-09T09:01:47;7.80;;;5.30;;
59972;SDS011;55298;-36.624;-64.282;2022-07-09T09:04:15;7.00;;;4.65;;
59972;SDS011;55298;-36.624;-64.282;2022-07-09T09:06:45;11.95;;;5.32;;
59972;SDS011;55298;-36.624;-64.282;2022-07-09T09:09:17;4.88;;;4.47;;
59972;SDS011;55298;-36.624;-64.282;2022-07-09T09:11:48;4.82;;;4.50;;
59972;SDS011;55298;-36.624;-64.282;2022-07-09T09:14:20;5.90;;;4.80;;
59972;SDS011;55298;-36.624;-64.282;2022-07-09T09:16:51;5.53;;;4.97;;
59972;SDS011;55298;-36.624;-64.282;2022-07-09T09:19:21;7.70;;;4.32;;
59972;SDS011;55298;-36.624;-64.282;2022-07-09T09:21:54;4.82;;;4.53;;
59972;SDS011;55298;-36.624;-64.282;2022-07-09T09:24:22;20.90;;;5.63;;
59972;SDS011;55298;-36.624;-64.282;2022-07-09T09:26:56;5.40;;;4.65;;
59972;SDS011;55298;-36.624;-64.282;2022-07-09T09:29:25;5.68;;;4.80;;
59972;SDS011;55298;-36.624;-64.282;2022-07-09T09:31:55;4.55;;;4.15;;
59972;SDS011;55298;-36.624;-64.282;2022-07-09T09:34:23;4.55;;;4.25;;
59972;SDS011;55298;-36.624;-64.282;2022-07-09T09:36:52;7.15;;;4.47;;
59972;SDS011;55298;-36.624;-64.282;2022-07-09T09:39:22;6.88;;;4.65;;
59972;SDS011;55298;-36.624;-64.282;2022-07-09T09:41:53;4.63;;;4.25;;
59972;SDS011;55298;-36.624;-64.282;2022-07-09T09:44:26;5.72;;;4.63;;
59972;SDS011;55298;-36.624;-64.282;2022-07-09T09:47:03;7.10;;;4.63;;
59972;SDS011;55298;-36.624;-64.282;2022-07-09T09:49:34;5.45;;;4.95;;
59972;SDS011;55298;-36.624;-64.282;2022-07-09T09:52:06;5.25;;;4.75;;
59972;SDS011;55298;-36.624;-64.282;2022-07-09T09:54:37;5.43;;;4.93;;
59972;SDS011;55298;-36.624;-64.282;2022-07-09T09:57:11;7.30;;;4.65;;
59972;SDS011;55298;-36.624;-64.282;2022-07-09T09:59:41;8.63;;;4.70;;
59972;SDS011;55298;-36.624;-64.282;2022-07-09T10:02:12;6.10;;;4.60;;
59972;SDS011;55298;-36.624;-64.282;2022-07-09T10:04:41;9.48;;;4.70;;
59972;SDS011;55298;-36.624;-64.282;2022-07-09T10:07:11;4.93;;;4.50;;
59972;SDS011;55298;-36.624;-64.282;2022-07-09T10:09:41;5.50;;;4.97;;
59972;SDS011;55298;-36.624;-64.282;2022-07-09T10:12:29;6.15;;;5.65;;
59972;SDS011;55298;-36.624;-64.282;2022-07-09T10:15:00;6.18;;;4.53;;
59972;SDS011;55298;-36.624;-64.282;2022-07-09T10:17:38;7.20;;;5.22;;
59972;SDS011;55298;-36.624;-64.282;2022-07-09T10:20:08;6.03;;;4.72;;
59972;SDS011;55298;-36.624;-64.282;2022-07-09T10:22:37;5.18;;;4.75;;
59972;SDS011;55298;-36.624;-64.282;2022-07-09T10:25:08;4.90;;;4.60;;
59972;SDS011;55298;-36.624;-64.282;2022-07-09T10:27:42;4.68;;;4.38;;
59972;SDS011;55298;-36.624;-64.282;2022-07-09T10:35:39;5.03;;;4.60;;
59972;SDS011;55298;-36.624;-64.282;2022-07-09T10:38:09;7.03;;;6.38;;
59972;SDS011;55298;-36.624;-64.282;2022-07-09T10:40:39;5.05;;;4.65;;
59972;SDS011;55298;-36.624;-64.282;2022-07-09T10:43:11;5.05;;;4.70;;
59972;SDS011;55298;-36.624;-64.282;2022-07-09T10:45:43;6.43;;;5.57;;
59972;SDS011;55298;-36.624;-64.282;2022-07-09T10:48:13;5.80;;;5.40;;
59972;SDS011;55298;-36.624;-64.282;2022-07-09T10:50:43;4.78;;;4.30;;
59972;SDS011;55298;-36.624;-64.282;2022-07-09T10:53:12;6.55;;;4.30;;
59972;SDS011;55298;-36.624;-64.282;2022-07-09T10:55:43;5.18;;;4.80;;
59972;SDS011;55298;-36.624;-64.282;2022-07-09T10:58:21;4.03;;;3.83;;
59972;SDS011;55298;-36.624;-64.282;2022-07-09T11:00:59;5.28;;;4.85;;
59972;SDS011;55298;-36.624;-64.282;2022-07-09T11:03:30;6.53;;;5.22;;
59972;SDS011;55298;-36.624;-64.282;2022-07-09T11:06:02;4.15;;;3.95;;
59972;SDS011;55298;-36.624;-64.282;2022-07-09T11:08:31;5.05;;;4.65;;
59972;SDS011;55298;-36.624;-64.282;2022-07-09T11:11:00;4.75;;;4.43;;
59972;SDS011;55298;-36.624;-64.282;2022-07-09T11:13:28;5.32;;;4.22;;
59972;SDS011;55298;-36.624;-64.282;2022-07-09T11:15:58;5.43;;;4.93;;
59972;SDS011;55298;-36.624;-64.282;2022-07-09T11:18:28;4.78;;;4.38;;
59972;SDS011;55298;-36.624;-64.282;2022-07-09T11:20:56;5.25;;;4.68;;
59972;SDS011;55298;-36.624;-64.282;2022-07-09T11:23:25;5.18;;;4.68;;
59972;SDS011;55298;-36.624;-64.282;2022-07-09T11:25:53;5.00;;;4.70;;
59972;SDS011;55298;-36.624;-64.282;2022-07-09T11:28:23;5.35;;;4.85;;
59972;SDS011;55298;-36.624;-64.282;2022-07-09T11:31:07;6.15;;;4.68;;
59972;SDS011;55298;-36.624;-64.282;2022-07-09T11:33:36;5.10;;;4.70;;
59972;SDS011;55298;-36.624;-64.282;2022-07-09T11:36:17;4.65;;;4.40;;
59972;SDS011;55298;-36.624;-64.282;2022-07-09T11:38:47;4.97;;;4.65;;
59972;SDS011;55298;-36.624;-64.282;2022-07-09T11:41:16;4.50;;;4.18;;
59972;SDS011;55298;-36.624;-64.282;2022-07-09T11:43:48;5.85;;;5.28;;
59972;SDS011;55298;-36.624;-64.282;2022-07-09T11:46:20;11.95;;;4.57;;
59972;SDS011;55298;-36.624;-64.282;2022-07-09T11:48:51;4.93;;;4.43;;
59972;SDS011;55298;-36.624;-64.282;2022-07-09T11:51:30;4.60;;;4.30;;
59972;SDS011;55298;-36.624;-64.282;2022-07-09T11:53:59;5.45;;;5.05;;
59972;SDS011;55298;-36.624;-64.282;2022-07-09T11:59:11;5.50;;;4.82;;
59972;SDS011;55298;-36.624;-64.282;2022-07-09T12:01:40;4.93;;;4.63;;
59972;SDS011;55298;-36.624;-64.282;2022-07-09T12:04:17;5.15;;;4.78;;
59972;SDS011;55298;-36.624;-64.282;2022-07-09T12:06:48;7.63;;;4.97;;
59972;SDS011;55298;-36.624;-64.282;2022-07-09T12:12:00;5.18;;;4.78;;
59972;SDS011;55298;-36.624;-64.282;2022-07-09T12:14:28;5.32;;;4.85;;
59972;SDS011;55298;-36.624;-64.282;2022-07-09T12:16:58;5.22;;;4.75;;
59972;SDS011;55298;-36.624;-64.282;2022-07-09T12:19:28;5.90;;;5.40;;
59972;SDS011;55298;-36.624;-64.282;2022-07-09T12:21:56;4.65;;;4.25;;
59972;SDS011;55298;-36.624;-64.282;2022-07-09T12:24:24;5.15;;;4.85;;
59972;SDS011;55298;-36.624;-64.282;2022-07-09T12:26:54;5.85;;;5.35;;
59972;SDS011;55298;-36.624;-64.282;2022-07-09T12:29:22;5.32;;;4.93;;
59972;SDS011;55298;-36.624;-64.282;2022-07-09T12:31:51;4.68;;;4.30;;
59972;SDS011;55298;-36.624;-64.282;2022-07-09T12:34:20;4.90;;;4.60;;
59972;SDS011;55298;-36.624;-64.282;2022-07-09T12:36:50;7.88;;;5.18;;
59972;SDS011;55298;-36.624;-64.282;2022-07-09T12:39:19;5.03;;;4.75;;
59972;SDS011;55298;-36.624;-64.282;2022-07-09T12:41:47;5.25;;;4.88;;
59972;SDS011;55298;-36.624;-64.282;2022-07-09T12:44:16;4.72;;;4.47;;
59972;SDS011;55298;-36.624;-64.282;2022-07-09T12:46:44;6.13;;;4.50;;
59972;SDS011;55298;-36.624;-64.282;2022-07-09T12:49:14;4.55;;;4.22;;
59972;SDS011;55298;-36.624;-64.282;2022-07-09T12:51:43;4.88;;;4.45;;
59972;SDS011;55298;-36.624;-64.282;2022-07-09T12:54:12;5.00;;;4.60;;
59972;SDS011;55298;-36.624;-64.282;2022-07-09T12:56:40;7.32;;;4.82;;
59972;SDS011;55298;-36.624;-64.282;2022-07-09T12:59:09;4.90;;;4.50;;
59972;SDS011;55298;-36.624;-64.282;2022-07-09T13:01:38;6.35;;;4.45;;
59972;SDS011;55298;-36.624;-64.282;2022-07-09T13:04:12;6.60;;;5.60;;
59972;SDS011;55298;-36.624;-64.282;2022-07-09T13:06:40;5.10;;;4.60;;
59972;SDS011;55298;-36.624;-64.282;2022-07-09T13:09:10;5.07;;;4.57;;
59972;SDS011;55298;-36.624;-64.282;2022-07-09T13:11:37;6.60;;;3.95;;
59972;SDS011;55298;-36.624;-64.282;2022-07-09T13:14:06;8.02;;;4.40;;
59972;SDS011;55298;-36.624;-64.282;2022-07-09T13:16:35;4.88;;;4.15;;
59972;SDS011;55298;-36.624;-64.282;2022-07-09T13:19:05;4.72;;;4.32;;
59972;SDS011;55298;-36.624;-64.282;2022-07-09T13:21:34;4.38;;;4.00;;
59972;SDS011;55298;-36.624;-64.282;2022-07-09T13:24:04;4.70;;;4.32;;
59972;SDS011;55298;-36.624;-64.282;2022-07-09T13:26:32;5.05;;;4.40;;
59972;SDS011;55298;-36.624;-64.282;2022-07-09T13:29:01;5.00;;;4.60;;
59972;SDS011;55298;-36.624;-64.282;2022-07-09T13:31:30;4.57;;;4.22;;
59972;SDS011;55298;-36.624;-64.282;2022-07-09T13:33:59;7.78;;;4.20;;
59972;SDS011;55298;-36.624;-64.282;2022-07-09T13:36:28;5.57;;;4.95;;
59972;SDS011;55298;-36.624;-64.282;2022-07-09T13:38:58;8.40;;;4.40;;
59972;SDS011;55298;-36.624;-64.282;2022-07-09T13:41:26;6.05;;;4.40;;
59972;SDS011;55298;-36.624;-64.282;2022-07-09T13:43:57;5.25;;;4.82;;
59972;SDS011;55298;-36.624;-64.282;2022-07-09T13:46:25;4.82;;;4.43;;
59972;SDS011;55298;-36.624;-64.282;2022-07-09T13:48:54;7.03;;;5.68;;
59972;SDS011;55298;-36.624;-64.282;2022-07-09T13:51:22;4.90;;;4.47;;
59972;SDS011;55298;-36.624;-64.282;2022-07-09T13:53:52;6.25;;;4.45;;
59972;SDS011;55298;-36.624;-64.282;2022-07-09T13:56:20;4.97;;;4.13;;
59972;SDS011;55298;-36.624;-64.282;2022-07-09T13:58:48;4.70;;;4.40;;
59972;SDS011;55298;-36.624;-64.282;2022-07-09T14:01:18;5.97;;;4.57;;
59972;SDS011;55298;-36.624;-64.282;2022-07-09T14:03:46;6.07;;;4.07;;
59972;SDS011;55298;-36.624;-64.282;2022-07-09T14:06:15;5.18;;;4.78;;
59972;SDS011;55298;-36.624;-64.282;2022-07-09T14:08:43;5.07;;;4.65;;
59972;SDS011;55298;-36.624;-64.282;2022-07-09T14:11:12;8.57;;;4.20;;
59972;SDS011;55298;-36.624;-64.282;2022-07-09T14:13:40;5.90;;;4.03;;
59972;SDS011;55298;-36.624;-64.282;2022-07-09T14:16:10;4.40;;;4.00;;
59972;SDS011;55298;-36.624;-64.282;2022-07-09T14:18:40;6.90;;;4.90;;
59972;SDS011;55298;-36.624;-64.282;2022-07-09T14:21:09;5.05;;;4.55;;
59972;SDS011;55298;-36.624;-64.282;2022-07-09T14:23:37;6.93;;;4.60;;
59972;SDS011;55298;-36.624;-64.282;2022-07-09T14:26:07;5.65;;;4.75;;
59972;SDS011;55298;-36.624;-64.282;2022-07-09T14:28:34;5.45;;;4.95;;
59972;SDS011;55298;-36.624;-64.282;2022-07-09T14:31:03;7.00;;;5.95;;